Time;durP1;ratioP1;P1;durP2;ratioP2;P2;SDS_P1;SDS_P2;PMS_P1;PMS_P2;Temp;Humidity;BMP_temperature;BMP_pressure;BME280_temperature;BME280_humidity;BME280_pressure;Samples;Min_cycle;Max_cycle;Signal;HPM_P1;HPM_P2
2022/02/03 00:02:38;;;;;;;13.05;2.60;;;;;;;1.10;100.00;98870.94;10519281;28;20076;-65
2022/02/03 00:07:52;;;;;;;16.08;2.85;;;;;;;1.11;100.00;98871.78;10516723;28;20052;-65
2022/02/03 00:29:15;;;;;;;13.77;2.88;;;;;;;1.03;100.00;98864.25;10506156;28;20080;-64
2022/02/03 00:34:27;;;;;;;13.07;2.45;;;;;;;0.98;100.00;98853.06;10519312;28;20071;-65
2022/02/03 00:50:25;;;;;;;16.65;2.80;;;;;;;0.85;100.00;98856.44;10526373;28;20052;-65
2022/02/03 00:55:36;;;;;;;15.10;2.83;;;;;;;0.80;100.00;98855.84;10526581;28;20040;-64
2022/02/03 01:00:43;;;;;;;15.25;2.88;;;;;;;0.74;100.00;98857.06;10526801;28;20135;-65
2022/02/03 01:05:48;;;;;;;16.30;2.60;;;;;;;0.70;100.00;98852.00;10527760;28;20042;-65
2022/02/03 01:11:02;;;;;;;10.20;2.45;;;;;;;0.69;100.00;98858.25;10541858;28;20051;-65
2022/02/03 01:16:13;;;;;;;20.23;3.15;;;;;;;0.64;100.00;98874.44;10526692;28;20044;-65
2022/02/03 01:37:51;;;;;;;10.68;2.30;;;;;;;0.59;100.00;98866.75;10525996;28;20048;-60
2022/02/03 01:49:12;;;;;;;17.80;3.00;;;;;;;0.52;100.00;98849.50;10524167;28;20052;-62
2022/02/03 01:54:24;;;;;;;14.80;2.75;;;;;;;0.52;100.00;98843.31;10523847;28;20046;-64
2022/02/03 01:59:30;;;;;;;18.15;2.80;;;;;;;0.52;100.00;98838.00;10525552;28;20043;-61
2022/02/03 02:04:58;;;;;;;12.90;2.50;;;;;;;0.51;100.00;98823.91;10557710;27;20671;-62
2022/02/03 02:10:38;;;;;;;10.07;2.35;;;;;;;0.50;100.00;98808.94;10525212;28;20130;-60
2022/02/03 02:16:12;;;;;;;13.55;2.78;;;;;;;0.47;100.00;98811.78;10524869;28;20128;-58
2022/02/03 02:37:56;;;;;;;14.00;2.63;;;;;;;0.50;100.00;98766.53;10506930;28;20064;-64
2022/02/03 02:43:05;;;;;;;10.43;2.78;;;;;;;0.53;100.00;98765.50;10523821;28;20052;-62
2022/02/03 02:48:21;;;;;;;17.58;2.65;;;;;;;0.54;100.00;98767.19;10523418;28;20131;-65
2022/02/03 02:53:39;;;;;;;13.52;2.42;;;;;;;0.59;100.00;98765.13;10523388;28;20050;-65
2022/02/03 02:59:06;;;;;;;15.35;2.65;;;;;;;0.64;100.00;98770.19;10522005;28;20060;-64
2022/02/03 03:29:05;;;;;;;17.05;2.90;;;;;;;0.69;100.00;98768.09;10522207;28;20395;-64
2022/02/03 03:31:45;;;;;;;9.52;2.20;;;;;;;0.96;100.00;98747.03;10522409;28;20131;-60
2022/02/03 03:36:52;;;;;;;;;;;;;;;1.01;100.00;98738.78;10522605;28;20471;-64
2022/02/03 03:42:00;;;;;;;8.15;2.10;;;;;;;1.05;100.00;98722.63;10522673;28;19974;-64
2022/02/03 03:47:07;;;;;;;9.75;2.15;;;;;;;1.11;100.00;98724.03;10525253;28;20040;-61
2022/02/03 03:52:17;;;;;;;8.27;1.90;;;;;;;1.14;100.00;98712.38;10555432;28;20044;-65
2022/02/03 03:57:38;;;;;;;11.75;2.17;;;;;;;1.17;100.00;98718.34;10559941;28;20031;-65
2022/02/03 04:41:50;;;;;;;9.18;1.98;;;;;;;1.44;100.00;98701.66;10520967;27;20067;-65
2022/02/03 04:59:10;;;;;;;10.35;2.17;;;;;;;1.53;100.00;98709.03;10475886;28;20060;-64
2022/02/03 05:04:44;;;;;;;10.95;2.00;;;;;;;1.60;100.00;98717.47;10522367;28;20441;-64
2022/02/03 05:10:11;;;;;;;9.82;2.10;;;;;;;1.73;100.00;98714.88;10526704;28;20081;-64
2022/02/03 05:15:41;;;;;;;8.70;1.90;;;;;;;1.83;100.00;98697.38;10525249;28;20044;-64
2022/02/03 05:27:08;;;;;;;10.27;2.10;;;;;;;1.88;100.00;98701.56;10510152;28;20134;-64
2022/02/03 05:44:11;;;;;;;10.57;2.28;;;;;;;1.83;100.00;98692.06;10621629;27;20114;-61
2022/02/03 06:05:48;;;;;;;11.48;2.13;;;;;;;1.88;100.00;98665.22;10586457;27;20039;-61
2022/02/03 06:16:37;;;;;;;9.38;2.00;;;;;;;1.90;100.00;98652.69;10584449;27;20040;-64
2022/02/03 06:21:50;;;;;;;10.18;2.00;;;;;;;1.93;100.00;98641.00;10597804;27;20064;-64
2022/02/03 06:32:16;;;;;;;13.88;2.55;;;;;;;1.91;100.00;98642.91;10596928;27;20047;-64
2022/02/03 06:37:20;;;;;;;10.43;2.72;;;;;;;1.95;100.00;98628.44;10595422;27;20422;-64
2022/02/03 06:42:26;;;;;;;11.63;3.20;;;;;;;1.96;100.00;98628.38;10592208;27;20039;-62
2022/02/03 06:47:34;;;;;;;15.80;3.67;;;;;;;2.06;100.00;98641.88;10581915;27;20092;-60
2022/02/03 06:52:49;;;;;;;14.75;3.47;;;;;;;2.09;100.00;98638.19;10565802;28;20135;-64
2022/02/03 06:57:58;;;;;;;18.33;4.25;;;;;;;2.14;100.00;98644.91;10570499;28;20119;-64
2022/02/03 07:03:05;;;;;;;15.60;4.22;;;;;;;2.19;100.00;98633.09;10568245;28;20044;-64
2022/02/03 07:08:14;;;;;;;15.32;4.25;;;;;;;2.23;100.00;98630.16;10567628;27;20118;-63
2022/02/03 07:13:21;;;;;;;12.23;4.30;;;;;;;2.31;100.00;98621.63;10565105;27;20047;-60
2022/02/03 07:18:25;;;;;;;18.55;4.88;;;;;;;2.34;100.00;98624.09;10567733;27;20050;-58
2022/02/03 07:23:28;;;;;;;14.30;4.80;;;;;;;2.39;100.00;98623.78;10568462;28;20051;-62
2022/02/03 07:28:34;;;;;;;19.58;5.20;;;;;;;2.43;100.00;98628.78;10566856;28;20043;-63
2022/02/03 07:33:38;;;;;;;16.55;5.03;;;;;;;2.47;100.00;98616.97;10563183;27;20513;-64
2022/02/03 07:38:42;;;;;;;17.38;5.25;;;;;;;2.51;100.00;98608.81;10560857;28;20086;-64
2022/02/03 07:43:47;;;;;;;14.90;5.22;;;;;;;2.56;100.00;98602.22;10566554;27;20130;-63
2022/02/03 07:48:52;;;;;;;15.13;5.53;;;;;;;2.60;100.00;98602.84;10564647;27;20051;-63
2022/02/03 07:53:55;;;;;;;19.60;5.20;;;;;;;2.69;100.00;98596.03;10569223;27;20046;-64
2022/02/03 07:58:59;;;;;;;13.95;5.22;;;;;;;2.76;100.00;98587.50;10569236;28;20077;-65
2022/02/03 08:04:06;;;;;;;14.93;5.20;;;;;;;2.82;100.00;98585.38;10566603;28;20122;-62
2022/02/03 08:09:15;;;;;;;17.83;6.10;;;;;;;2.87;100.00;98580.59;10565756;28;20550;-64
2022/02/03 08:14:23;;;;;;;15.27;5.72;;;;;;;2.95;100.00;98578.22;10568240;28;20040;-65
2022/02/03 08:19:32;;;;;;;16.42;5.70;;;;;;;3.02;100.00;98568.00;10565981;28;20042;-64
2022/02/03 08:24:45;;;;;;;12.80;5.75;;;;;;;3.11;100.00;98571.81;10565258;27;20122;-63
2022/02/03 08:30:08;;;;;;;14.02;6.40;;;;;;;3.19;100.00;98575.59;10565175;28;20043;-62
2022/02/03 08:35:22;;;;;;;15.57;6.10;;;;;;;3.29;100.00;98573.13;10566739;27;20070;-64
2022/02/03 08:40:29;;;;;;;14.68;5.95;;;;;;;3.38;100.00;98572.47;10568935;27;20100;-64
2022/02/03 08:45:33;;;;;;;13.98;5.97;;;;;;;3.49;100.00;98566.34;10564800;28;20066;-66
2022/02/03 08:50:37;;;;;;;13.98;5.78;;;;;;;3.58;100.00;98564.84;10563604;27;20066;-62
2022/02/03 08:55:49;;;;;;;12.73;5.85;;;;;;;3.70;100.00;98571.91;10560727;28;20054;-63
2022/02/03 09:39:05;;;;;;;7.43;3.88;;;;;;;4.47;100.00;98517.19;10537091;28;20047;-61
2022/02/03 09:55:00;;;;;;;;;;;;;;;4.76;100.00;98510.56;10559951;28;20043;-62
2022/02/03 10:00:35;;;;;;;6.32;3.72;;;;;;;4.83;100.00;98503.75;10562171;28;19920;-63
2022/02/03 10:05:56;;;;;;;5.57;3.50;;;;;;;4.94;100.00;98495.72;10554350;28;20105;-62
2022/02/03 10:11:15;;;;;;;5.20;3.13;;;;;;;5.07;100.00;98486.72;10563489;28;20070;-62
2022/02/03 10:16:20;;;;;;;6.60;3.10;;;;;;;5.16;100.00;98475.28;10561661;28;20075;-63
2022/02/03 10:21:25;;;;;;;4.65;2.97;;;;;;;5.25;100.00;98463.84;10561278;27;20408;-59
2022/02/03 10:26:34;;;;;;;3.25;2.70;;;;;;;5.38;100.00;98462.81;10567686;27;20052;-62
2022/02/03 10:31:39;;;;;;;5.38;2.85;;;;;;;5.49;100.00;98454.75;10564622;28;20050;-62
2022/02/03 10:37:01;;;;;;;4.63;3.00;;;;;;;5.65;100.00;98451.66;10567258;28;20055;-63
2022/02/03 10:42:15;;;;;;;3.13;2.40;;;;;;;5.81;100.00;98448.56;10566051;28;20047;-62
2022/02/03 10:48:05;;;;;;;4.07;2.50;;;;;;;5.98;100.00;98440.91;10573617;27;20078;-61
2022/02/03 10:53:28;;;;;;;3.30;2.70;;;;;;;6.13;100.00;98442.28;10568143;27;20067;-61
2022/02/03 11:04:04;;;;;;;2.53;2.30;;;;;;;6.35;100.00;98412.84;10567669;28;20048;-62
2022/02/03 11:09:17;;;;;;;2.15;1.95;;;;;;;6.41;100.00;98405.09;10569946;28;20396;-59
2022/02/03 11:14:21;;;;;;;1.70;1.60;;;;;;;6.50;100.00;98394.56;10566942;27;20038;-63
2022/02/03 11:19:27;;;;;;;1.85;1.75;;;;;;;6.62;100.00;98396.16;10569401;28;20035;-63
2022/02/03 11:24:37;;;;;;;3.10;1.70;;;;;;;6.70;100.00;98390.97;10564502;27;20048;-61
2022/02/03 11:41:29;;;;;;;2.70;1.77;;;;;;;6.94;100.00;98369.13;10554666;27;20535;-63
2022/02/03 11:47:00;;;;;;;1.73;1.50;;;;;;;7.03;100.00;98353.22;10565978;27;20048;-64
2022/02/03 12:03:24;;;;;;;1.60;1.50;;;;;;;7.28;100.00;98330.38;10540172;27;20055;-64
2022/02/03 12:14:34;;;;;;;2.10;1.40;;;;;;;7.29;100.00;98305.28;10565253;28;20050;-64
2022/02/03 12:20:06;;;;;;;2.47;1.60;;;;;;;7.32;100.00;98293.41;10566566;28;20472;-63
2022/02/03 12:25:24;;;;;;;1.70;1.60;;;;;;;7.31;100.00;98297.94;10564981;27;20479;-63
2022/02/03 12:30:32;;;;;;;1.73;1.63;;;;;;;7.32;100.00;98294.28;10566551;28;20570;-63
2022/02/03 12:41:07;;;;;;;2.03;1.80;;;;;;;7.32;100.00;98274.66;10565751;28;20043;-64
2022/02/03 12:46:10;;;;;;;1.50;1.40;;;;;;;7.29;100.00;98261.56;10583215;27;20134;-63
2022/02/03 12:51:15;;;;;;;1.65;1.40;;;;;;;7.30;100.00;98247.16;10564594;27;20129;-66
2022/02/03 12:56:23;;;;;;;1.50;1.40;;;;;;;7.28;100.00;98244.63;10566027;28;20610;-64
2022/02/03 13:01:31;;;;;;;1.60;1.50;;;;;;;7.27;100.00;98242.94;10565975;27;20126;-65
2022/02/03 13:06:41;;;;;;;1.60;1.50;;;;;;;7.23;100.00;98233.50;10565725;28;20036;-61
2022/02/03 13:11:51;;;;;;;1.40;1.30;;;;;;;7.26;100.00;98219.81;10560616;28;21200;-63
2022/02/03 13:16:57;;;;;;;2.47;2.20;;;;;;;7.22;100.00;98215.75;10567408;28;20222;-59
2022/02/03 13:22:16;;;;;;;1.88;1.77;;;;;;;7.22;100.00;98213.06;10566243;28;20479;-62
2022/02/03 13:27:54;;;;;;;1.88;1.77;;;;;;;7.13;100.00;98219.25;10578516;27;20503;-62
2022/02/03 13:33:27;;;;;;;1.58;1.48;;;;;;;7.01;100.00;98216.75;10616141;27;20039;-64
2022/02/03 13:38:42;;;;;;;1.70;1.60;;;;;;;7.03;100.00;98197.88;10529602;28;20112;-63
2022/02/03 13:43:47;;;;;;;1.88;1.77;;;;;;;6.97;100.00;98188.59;10524009;28;20083;-64
2022/02/03 13:48:53;;;;;;;1.65;1.55;;;;;;;6.95;100.00;98195.91;10494365;28;20060;-64
2022/02/03 13:54:17;;;;;;;2.10;1.90;;;;;;;6.87;100.00;98188.59;10478518;28;20408;-65
2022/02/03 14:11:08;;;;;;;3.45;1.75;;;;;;;6.78;100.00;98166.19;10471652;28;20060;-61
2022/02/03 14:16:55;;;;;;;1.63;1.52;;;;;;;6.78;100.00;98162.69;10473897;28;20501;-63
2022/02/03 14:21:57;;;;;;;2.00;1.90;;;;;;;6.73;100.00;98162.25;10477267;28;20057;-62
2022/02/03 14:27:16;;;;;;;1.67;1.58;;;;;;;6.69;100.00;98161.69;10473607;28;20044;-64
2022/02/03 14:32:28;;;;;;;1.63;1.52;;;;;;;6.71;100.00;98149.03;10473568;28;20126;-63
2022/02/03 14:37:42;;;;;;;1.60;1.50;;;;;;;6.66;100.00;98148.59;10579277;27;20051;-63
2022/02/03 14:42:48;;;;;;;1.50;1.40;;;;;;;6.66;100.00;98150.44;10562401;27;20126;-65
2022/02/03 14:47:52;;;;;;;1.90;1.80;;;;;;;6.63;100.00;98143.56;10562747;27;20411;-63
2022/02/03 14:53:00;;;;;;;2.25;1.80;;;;;;;6.63;100.00;98127.50;10566724;27;20108;-64
2022/02/03 14:58:12;;;;;;;2.35;1.90;;;;;;;6.63;100.00;98122.97;10564479;28;20047;-64
2022/02/03 15:03:20;;;;;;;2.70;2.35;;;;;;;6.62;100.00;98115.09;10558870;27;20050;-64
2022/02/03 15:08:45;;;;;;;2.58;2.35;;;;;;;6.61;100.00;98105.38;10565787;27;20071;-64
2022/02/03 15:13:49;;;;;;;2.30;2.10;;;;;;;6.63;100.00;98090.00;10564372;27;20050;-64
2022/02/03 15:18:53;;;;;;;2.53;2.20;;;;;;;6.67;100.00;98075.34;10560471;27;20036;-64
2022/02/03 15:23:56;;;;;;;2.72;2.20;;;;;;;6.68;100.00;98082.38;10584965;27;20052;-62
2022/02/03 15:29:01;;;;;;;2.63;2.42;;;;;;;6.61;100.00;98075.94;10562622;27;20043;-61
2022/02/03 15:34:08;;;;;;;2.47;2.28;;;;;;;6.54;100.00;98082.81;10567367;27;20101;-64
2022/02/03 15:39:13;;;;;;;2.72;2.53;;;;;;;6.60;100.00;98084.94;10566068;28;20109;-63
2022/02/03 15:44:18;;;;;;;2.65;2.45;;;;;;;6.52;100.00;98082.16;10560869;27;20051;-63
2022/02/03 15:49:41;;;;;;;2.78;2.53;;;;;;;6.46;100.00;98100.47;10563614;27;20119;-63
2022/02/03 16:21:41;;;;;;;3.50;3.20;;;;;;;6.32;100.00;98095.53;10552576;27;20092;-63
2022/02/03 16:32:00;;;;;;;3.42;3.13;;;;;;;6.34;100.00;98093.56;10562782;27;20040;-61
2022/02/03 16:54:12;;;;;;;5.40;4.90;;;;;;;6.30;100.00;98062.72;10477090;22;20068;-60
2022/02/03 16:59:15;;;;;;;4.80;4.30;;;;;;;6.31;100.00;98065.28;10439571;28;20047;-62
2022/02/03 17:04:19;;;;;;;4.95;4.45;;;;;;;6.31;100.00;98057.25;10469906;28;20565;-59
2022/02/03 17:09:22;;;;;;;5.68;4.78;;;;;;;6.28;100.00;98065.56;10489237;28;20379;-61
2022/02/03 17:14:28;;;;;;;5.25;4.75;;;;;;;6.28;100.00;98054.03;10486255;28;20040;-62
2022/02/03 17:19:32;;;;;;;6.63;4.75;;;;;;;6.24;100.00;98057.97;10462360;28;20052;-62
2022/02/03 17:24:39;;;;;;;6.75;4.88;;;;;;;6.19;100.00;98060.22;10478073;28;20372;-60
2022/02/03 17:29:52;;;;;;;5.85;5.22;;;;;;;6.19;100.00;98065.56;10394416;28;20130;-61
2022/02/03 17:52:16;;;;;;;5.80;5.13;;;;;;;6.09;100.00;98058.38;10394541;28;19921;-62
2022/02/03 18:50:38;;;;;;;7.10;5.10;;;;;;;6.04;100.00;98009.84;10400510;28;20116;-62
2022/02/03 18:55:56;;;;;;;5.53;4.90;;;;;;;6.03;100.00;98005.50;10396799;28;20053;-64
2022/02/03 20:05:27;;;;;;;6.90;5.63;;;;;;;5.89;100.00;97979.97;10397822;28;20077;-57
2022/02/03 20:10:34;;;;;;;7.93;6.03;;;;;;;5.86;100.00;97967.75;10386690;28;20131;-66
2022/02/03 20:15:43;;;;;;;8.00;6.18;;;;;;;5.86;100.00;97958.91;10390468;28;20560;-64
2022/02/03 20:20:47;;;;;;;7.28;5.53;;;;;;;5.83;100.00;97954.66;10387959;28;20045;-64
2022/02/03 20:25:56;;;;;;;4.82;4.00;;;;;;;5.85;100.00;97943.84;10425402;28;20041;-64
2022/02/03 20:31:01;;;;;;;5.50;4.97;;;;;;;5.89;100.00;97939.06;10396902;28;20390;-61
2022/02/03 20:36:07;;;;;;;5.30;4.80;;;;;;;5.92;100.00;97936.94;10396881;28;20427;-60
2022/02/03 20:41:10;;;;;;;5.70;5.10;;;;;;;5.92;100.00;97928.06;10393271;28;20413;-62
2022/02/03 20:46:15;;;;;;;5.00;4.50;;;;;;;5.85;100.00;97931.31;10392325;28;20052;-63
2022/02/03 20:51:19;;;;;;;4.60;4.18;;;;;;;5.92;100.00;97925.41;10396476;28;20042;-64
2022/02/03 20:56:22;;;;;;;4.88;4.38;;;;;;;5.94;100.00;97918.09;10396548;28;20056;-67
2022/02/03 21:01:31;;;;;;;5.25;4.70;;;;;;;5.95;100.00;97920.59;10396574;28;20120;-65
2022/02/03 21:06:35;;;;;;;5.32;4.70;;;;;;;5.93;100.00;97921.75;10390386;28;20779;-63
2022/02/03 21:11:38;;;;;;;5.13;4.50;;;;;;;5.95;100.00;97915.25;10385708;28;20409;-65
2022/02/03 21:16:50;;;;;;;5.22;4.68;;;;;;;5.95;100.00;97917.06;10394949;28;20049;-63
2022/02/03 21:21:53;;;;;;;4.40;4.00;;;;;;;6.00;100.00;97917.53;10400745;28;20057;-61
2022/02/03 21:26:59;;;;;;;5.30;4.80;;;;;;;6.00;100.00;97901.47;10388584;28;20103;-63
2022/02/03 21:32:05;;;;;;;5.07;4.57;;;;;;;6.04;100.00;97913.59;10382325;28;20044;-63
2022/02/03 21:37:12;;;;;;;5.20;4.70;;;;;;;6.00;100.00;97912.19;10381694;28;20042;-63
2022/02/03 21:42:17;;;;;;;4.88;4.28;;;;;;;6.06;100.00;97919.59;10385793;28;20132;-62
2022/02/03 21:47:22;;;;;;;4.20;3.80;;;;;;;6.14;100.00;97910.88;10385260;28;20073;-65
2022/02/03 21:52:33;;;;;;;4.70;4.20;;;;;;;6.12;100.00;97910.16;10362287;28;20042;-64
2022/02/03 21:57:39;;;;;;;4.03;3.70;;;;;;;6.10;100.00;97915.66;10362311;28;20096;-61
2022/02/03 22:02:44;;;;;;;3.60;3.30;;;;;;;6.12;100.00;97910.16;10386262;28;20038;-63
2022/02/03 22:07:47;;;;;;;4.03;3.63;;;;;;;6.10;100.00;97910.31;10386297;28;20344;-63
2022/02/03 22:12:51;;;;;;;3.92;3.60;;;;;;;6.07;100.00;97918.63;10387318;28;20041;-64
2022/02/03 22:17:55;;;;;;;4.13;3.40;;;;;;;6.04;100.00;97913.59;10385113;28;20046;-63
2022/02/03 22:23:14;;;;;;;2.67;2.47;;;;;;;6.13;100.00;97911.84;10372700;28;20060;-63
2022/02/03 22:28:35;;;;;;;2.35;2.20;;;;;;;6.16;100.00;97909.75;10382384;28;20038;-61
2022/02/03 22:39:04;;;;;;;2.95;2.53;;;;;;;6.24;100.00;97908.16;10358407;28;20056;-63
2022/02/03 22:44:12;;;;;;;3.13;2.80;;;;;;;6.26;100.00;97887.47;10396988;28;20069;-62
2022/02/03 22:49:16;;;;;;;2.90;2.70;;;;;;;6.27;100.00;97875.78;10390024;28;20038;-60
2022/02/03 22:54:19;;;;;;;2.92;2.72;;;;;;;6.31;100.00;97883.34;10388257;22;20046;-62
2022/02/03 23:04:45;;;;;;;3.00;2.80;;;;;;;6.30;100.00;97896.88;10360654;28;20053;-62
2022/02/03 23:09:56;;;;;;;2.88;2.67;;;;;;;6.32;100.00;97897.56;10361290;28;20073;-62
2022/02/03 23:15:28;;;;;;;4.20;3.80;;;;;;;6.24;100.00;97909.00;10353578;28;20060;-62
2022/02/03 23:20:44;;;;;;;3.90;3.50;;;;;;;6.11;100.00;97919.19;10355346;28;20478;-62
2022/02/03 23:25:47;;;;;;;4.85;4.45;;;;;;;6.11;100.00;97914.69;10352802;28;20046;-62
2022/02/03 23:30:52;;;;;;;5.43;4.00;;;;;;;5.96;100.00;97916.94;10355689;28;20592;-63
2022/02/03 23:35:56;;;;;;;4.50;4.10;;;;;;;5.96;100.00;97933.00;10351516;28;20057;-61
